This is the latest recevied weather packets stored in our database for station/object KT1D-13. If no packets are shown the sender has not sent any weather packets the latest 10 day(s).
| Time | Temp. | Humidity | Pressure | Rain* | Wind** | Luminosity | Snow |
|---|---|---|---|---|---|---|---|
| 1777635319 | 8.33° C | 74% | 1009.2 hPa | 0 mm | - | 222 W/m² | - |
| 1777628124 | 7.78° C | 79% | 1008.5 hPa | 0 mm | - | 1 W/m² | - |
| 1777627524 | 7.78° C | 80% | 1008.4 hPa | 0 mm | - | 0 W/m² | - |
| 1777626341 | 7.78° C | 80% | 1008.4 hPa | 0 mm | - | 0 W/m² | - |
| 1777619726 | 8.89° C | 76% | 1007.6 hPa | 0 mm | - | 0 W/m² | - |
| 1777610728 | 10.56° C | 90% | 1006.7 hPa | 0 mm | - | 0 W/m² | - |
| 1777608328 | 10.56° C | 94% | 1006.3 hPa | 0 mm | - | 0 W/m² | - |
| 1777600530 | 10° C | 95% | 1006.5 hPa | 0 mm | - | 0 W/m² | - |
| 1777599331 | 10° C | 94% | 1006.5 hPa | 0 mm | - | 0 W/m² | - |
| 1777598731 | 10° C | 94% | 1006.5 hPa | 0 mm | - | 0 W/m² | - |
| 1777595731 | 10.56° C | 92% | 1006.2 hPa | 0 mm | - | 0 W/m² | - |
| 1777595172 | 10.56° C | 92% | 1006.2 hPa | 0 mm | - | 0 W/m² | - |
| 1777591518 | 11.67° C | 88% | 1005.9 hPa | 0 mm | - | 16 W/m² | - |
| 1777583718 | 11.67° C | 87% | 1005.1 hPa | 0 mm | - | 247 W/m² | - |
| 1777582519 | 11.67° C | 88% | 1005.2 hPa | 0 mm | - | 260 W/m² | - |
| 1777579540 | 11.11° C | 90% | 1005.3 hPa | 0 mm | - | 171 W/m² | - |
| 1777575940 | 10.56° C | 92% | 1005.5 hPa | 0 mm | - | 154 W/m² | - |
| 1777573521 | 10° C | 94% | 1005.7 hPa | 0 mm | - | 237 W/m² | - |
| 1777569922 | 9.44° C | 96% | 1006.3 hPa | 0 mm | - | 232 W/m² | - |
| 1777566923 | 8.89° C | 96% | 1006.6 hPa | 0 mm | - | 134 W/m² | - |
| 1777562724 | 8.33° C | 97% | 1006.5 hPa | 0 mm | - | 153 W/m² | - |
| 1777559725 | 8.33° C | 97% | 1007 hPa | 0 mm | - | 118 W/m² | - |
| 1777553127 | 7.78° C | 98% | 1007.5 hPa | 0 mm | - | 69 W/m² | - |
| 1777551927 | 7.78° C | 98% | 1007.6 hPa | 0 mm | - | 139 W/m² | - |
| 1777545329 | 7.22° C | 98% | 1007.1 hPa | 0 mm | - | 21 W/m² | - |
* Rain latest hour (hover to see other rain measurements)
** Current wind speed in m/s (hover to see current wind gust speed)